Little Rock Air Force Base Jacksonville US
ICAO: KLRF
IATA: LRF
Category: Medium
Scheduled Services: No

Elevation: 311 ft
TransAlt. 18000 ft.

Airport Communications:
APP/DEP:119.5
ATIS:25.11
CLNC DEL:25.35
GND:132.8
ANG COMD POST:143.8
PMSV METRO:23.98
COMD POST:34.94
PTD:37.22
TWR:120.6

KLRF Zoom In..

If you have problems with the map follow the link
https://www.worldairports.se/pages/airport.php?
ICAO=KLRF

Runways:

(A) RW 07 length 12000 ft width 200 ft
---- / hdg 70

(B) RW 25 length 12000 ft width 200 ft
ILS 109.90 / hdg 250

Location; KLRF
Day. 23 / Time. 21.56 Zulu
* Altimeter: 29.92
* Temperature: 06° c. 42.8°f.
* Wind from: 270° Speed 06 kn.
Dewpoint: 04° c.
Visibility: 10 Statute Miles.
Clouds: Overcast 1100 ft.

KLRF 232156Z AUTO 27006KT 10SM OVC011 06/04 A2992 RMK AO2 CIG 009 RWY07 SLPNO T00570043


Wind From 270°
Speed 06 kn.

 
 
jpsmedia worldairports.se 2020   terms of use